Time;durP1;ratioP1;P1;durP2;ratioP2;P2;SDS_P1;SDS_P2;PMS_P1;PMS_P2;Temp;Humidity;BMP_temperature;BMP_pressure;BME280_temperature;BME280_humidity;BME280_pressure;Samples;Min_cycle;Max_cycle;Signal;HPM_P1;HPM_P2
2022/09/20 00:01:12;;;;;;;18.40;12.20;;;13.00;38.70;;;;;;5013397;28;20439;-43
2022/09/20 00:03:41;;;;;;;13.07;12.13;;;13.10;38.20;;;;;;5013708;28;20416;-43
2022/09/20 00:06:12;;;;;;;12.93;12.23;;;13.10;37.90;;;;;;5014440;28;20176;-44
2022/09/20 00:08:39;;;;;;;12.77;12.13;;;13.10;37.40;;;;;;5013753;28;20415;-45
2022/09/20 00:11:14;;;;;;;12.47;11.97;;;13.10;37.60;;;;;;5014135;28;20951;-43
2022/09/20 00:13:41;;;;;;;12.20;11.70;;;13.10;37.70;;;;;;5014285;28;20604;-45
2022/09/20 00:16:08;;;;;;;12.43;11.93;;;13.20;37.50;;;;;;5013440;28;20458;-46
2022/09/20 00:18:35;;;;;;;12.60;12.10;;;13.20;37.40;;;;;;5014695;28;20786;-51
2022/09/20 00:21:02;;;;;;;12.80;12.30;;;13.20;37.60;;;;;;5014423;28;20478;-50
2022/09/20 00:23:29;;;;;;;13.10;12.37;;;13.20;37.50;;;;;;5014372;28;20469;-51
2022/09/20 00:25:59;;;;;;;12.97;12.17;;;13.20;37.60;;;;;;5014375;28;20931;-49
2022/09/20 00:28:26;;;;;;;13.33;12.60;;;13.20;37.80;;;;;;5031817;28;20498;-48
2022/09/20 00:30:53;;;;;;;14.27;12.63;;;13.20;37.80;;;;;;5014299;28;20438;-46
2022/09/20 00:33:20;;;;;;;12.20;11.60;;;13.20;37.80;;;;;;5014359;28;20446;-48
2022/09/20 00:35:46;;;;;;;11.10;10.80;;;13.20;37.70;;;;;;5014038;28;20490;-53
2022/09/20 00:38:13;;;;;;;12.40;11.80;;;13.20;37.50;;;;;;5013943;28;20407;-48
2022/09/20 00:40:40;;;;;;;13.13;12.37;;;13.30;37.20;;;;;;5013995;28;20177;-46
2022/09/20 00:43:06;;;;;;;12.43;11.87;;;13.30;37.10;;;;;;5013907;28;20415;-48
2022/09/20 00:45:32;;;;;;;12.90;12.40;;;13.30;37.30;;;;;;5013420;28;20423;-49
2022/09/20 00:48:00;;;;;;;12.33;11.70;;;13.30;37.50;;;;;;5031460;28;20183;-46
2022/09/20 00:50:35;;;;;;;12.40;11.90;;;13.30;37.50;;;;;;5031567;28;20745;-49
2022/09/20 00:53:20;;;;;;;12.60;12.10;;;13.30;37.40;;;;;;5014115;28;20442;-48
2022/09/20 00:56:40;;;;;;;12.33;11.83;;;13.30;37.40;;;;;;5013684;28;20474;-48
2022/09/20 00:59:15;;;;;;;12.43;11.63;;;13.30;36.80;;;;;;5046656;28;20507;-50
2022/09/20 01:01:43;;;;;;;11.67;11.17;;;13.30;36.70;;;;;;5014169;28;20418;-48
2022/09/20 01:04:10;;;;;;;12.10;11.60;;;13.30;36.90;;;;;;5014022;28;20443;-48
2022/09/20 01:06:36;;;;;;;12.30;11.80;;;13.30;37.20;;;;;;5013382;28;20485;-47
2022/09/20 01:09:06;;;;;;;13.33;11.97;;;13.30;37.30;;;;;;5013421;28;20423;-50
2022/09/20 01:11:33;;;;;;;12.10;11.60;;;13.30;37.10;;;;;;5013697;28;20284;-51
2022/09/20 01:13:59;;;;;;;12.33;11.63;;;13.30;37.20;;;;;;5015690;28;20446;-52
2022/09/20 01:16:29;;;;;;;12.00;11.50;;;13.30;37.20;;;;;;5012832;28;20471;-51
2022/09/20 01:18:57;;;;;;;11.07;10.63;;;13.30;36.90;;;;;;5013551;28;20526;-51
2022/09/20 01:21:25;;;;;;;12.60;12.00;;;13.30;37.00;;;;;;5013664;28;20416;-51
2022/09/20 01:24:12;;;;;;;13.47;12.83;;;13.30;36.60;;;;;;5013171;28;21038;-51
2022/09/20 01:26:56;;;;;;;12.03;11.53;;;13.30;36.50;;;;;;5013250;28;20447;-50
2022/09/20 01:29:54;;;;;;;11.43;11.03;;;13.30;36.20;;;;;;5045750;28;20419;-44
2022/09/20 01:32:23;;;;;;;12.27;11.47;;;13.30;36.10;;;;;;5001915;28;20427;-42
2022/09/20 01:38:39;;;;;;;12.50;12.00;;;13.20;36.10;;;;;;5030243;28;20387;-49
2022/09/20 01:41:14;;;;;;;12.20;11.70;;;13.20;36.70;;;;;;5012236;28;20416;-43
2022/09/20 01:44:09;;;;;;;11.20;10.80;;;13.20;37.20;;;;;;5030191;28;20510;-45
2022/09/20 01:46:36;;;;;;;11.97;11.47;;;13.20;37.00;;;;;;5012516;28;20415;-44
2022/09/20 01:49:15;;;;;;;12.40;11.80;;;13.20;36.80;;;;;;5012400;28;20431;-47
2022/09/20 01:52:20;;;;;;;12.67;11.97;;;13.20;36.70;;;;;;5012356;28;20953;-47
2022/09/20 01:54:56;;;;;;;13.13;12.20;;;13.20;36.50;;;;;;5012111;28;20454;-51
2022/09/20 01:58:00;;;;;;;12.20;11.60;;;13.10;37.20;;;;;;5012339;28;20442;-47
2022/09/20 02:00:30;;;;;;;12.60;12.10;;;13.20;37.30;;;;;;5045806;28;20423;-46
2022/09/20 02:03:18;;;;;;;13.33;12.47;;;13.20;37.30;;;;;;5012476;28;20411;-46
2022/09/20 02:06:05;;;;;;;12.33;11.83;;;13.20;37.20;;;;;;5012668;28;20415;-47
2022/09/20 02:08:47;;;;;;;11.47;10.83;;;13.20;36.40;;;;;;5045076;28;20411;-51
2022/09/20 02:11:33;;;;;;;12.13;11.63;;;12.90;36.60;;;;;;5013109;28;20435;-50
2022/09/20 02:14:11;;;;;;;12.33;11.90;;;12.70;36.60;;;;;;5012318;28;20500;-48
2022/09/20 02:16:56;;;;;;;12.40;12.00;;;12.50;37.10;;;;;;5012413;28;20462;-53
2022/09/20 02:19:31;;;;;;;12.67;12.10;;;12.40;37.60;;;;;;5012407;28;20430;-48
2022/09/20 02:22:34;;;;;;;12.87;12.27;;;12.40;37.90;;;;;;5011977;28;20403;-52
2022/09/20 02:25:36;;;;;;;13.20;12.60;;;12.30;38.40;;;;;;5043608;28;20513;-49
2022/09/20 02:28:07;;;;;;;12.30;11.70;;;12.40;38.80;;;;;;5011842;28;20448;-47
2022/09/20 02:30:56;;;;;;;13.10;12.17;;;12.60;38.10;;;;;;5012086;28;20832;-50
2022/09/20 02:34:10;;;;;;;12.40;11.93;;;12.60;37.90;;;;;;5012211;28;20408;-50
2022/09/20 02:36:54;;;;;;;12.57;12.07;;;12.70;38.00;;;;;;4942378;28;20466;-46
2022/09/20 02:39:22;;;;;;;12.80;12.40;;;12.80;37.00;;;;;;5044919;28;20434;-47
2022/09/20 02:41:47;;;;;;;12.27;11.77;;;12.80;37.50;;;;;;5012216;28;20920;-48
2022/09/20 02:44:42;;;;;;;12.70;12.30;;;12.90;37.80;;;;;;5011909;28;20469;-47
2022/09/20 02:47:38;;;;;;;12.40;11.90;;;13.00;37.60;;;;;;5011367;28;20367;-48
2022/09/20 02:50:30;;;;;;;13.30;12.60;;;13.00;37.90;;;;;;5011243;28;20428;-48
2022/09/20 02:53:23;;;;;;;13.60;12.80;;;13.10;37.80;;;;;;5011575;28;20411;-46
2022/09/20 02:56:18;;;;;;;13.07;12.47;;;12.80;37.90;;;;;;5044212;28;21060;-47
2022/09/20 02:58:43;;;;;;;13.80;13.17;;;12.60;39.00;;;;;;5010864;28;20462;-45
2022/09/20 03:01:24;;;;;;;12.40;12.00;;;12.30;39.20;;;;;;5010990;28;20923;-48
2022/09/20 03:03:54;;;;;;;13.40;12.60;;;12.30;39.50;;;;;;5011341;28;20242;-52
2022/09/20 03:06:49;;;;;;;14.13;12.63;;;12.30;38.60;;;;;;5011435;28;20420;-43
2022/09/20 03:09:24;;;;;;;13.33;12.87;;;12.30;38.50;;;;;;5043917;28;20459;-47
2022/09/20 03:12:11;;;;;;;13.70;13.10;;;12.30;39.20;;;;;;5010707;28;20463;-45
2022/09/20 03:15:01;;;;;;;13.27;12.67;;;12.40;38.70;;;;;;5011384;28;20863;-43
2022/09/20 03:17:44;;;;;;;13.40;12.90;;;12.60;38.00;;;;;;5010323;28;20435;-46
2022/09/20 03:20:47;;;;;;;14.07;12.70;;;12.80;37.10;;;;;;5011543;28;20429;-45
2022/09/20 03:23:35;;;;;;;12.40;11.90;;;12.90;36.50;;;;;;5044210;28;20561;-43
2022/09/20 03:26:19;;;;;;;12.90;12.20;;;12.90;35.90;;;;;;5010464;28;20438;-44
2022/09/20 03:29:25;;;;;;;13.13;12.53;;;12.70;36.10;;;;;;5011281;28;20411;-45
2022/09/20 03:31:54;;;;;;;14.23;13.43;;;12.60;37.30;;;;;;5043942;28;20416;-48
2022/09/20 03:34:35;;;;;;;14.43;13.00;;;12.60;37.10;;;;;;5010781;28;20427;-43
2022/09/20 03:37:12;;;;;;;14.07;13.47;;;12.50;37.10;;;;;;5015423;28;20906;-46
2022/09/20 03:39:58;;;;;;;14.70;13.83;;;12.50;37.50;;;;;;5014392;28;20413;-43
2022/09/20 03:42:30;;;;;;;13.57;12.90;;;12.50;37.10;;;;;;5014677;28;20415;-47
2022/09/20 03:45:14;;;;;;;13.63;13.03;;;12.50;37.10;;;;;;5014693;28;20433;-43
2022/09/20 03:47:43;;;;;;;13.47;12.87;;;12.50;37.50;;;;;;5048364;28;20806;-51
2022/09/20 03:50:32;;;;;;;13.43;12.73;;;12.50;37.30;;;;;;5015544;28;20427;-49
2022/09/20 03:53:12;;;;;;;14.17;13.37;;;12.50;37.30;;;;;;4977780;28;20430;-49
2022/09/20 03:56:10;;;;;;;13.30;12.80;;;12.40;38.60;;;;;;5015130;28;20470;-47
2022/09/20 03:58:35;;;;;;;13.97;13.07;;;12.50;38.00;;;;;;5032758;28;20412;-51
2022/09/20 04:01:19;;;;;;;14.33;13.63;;;12.40;37.70;;;;;;5014283;28;20419;-47
2022/09/20 04:04:08;;;;;;;14.37;13.67;;;12.40;38.00;;;;;;5014765;28;20180;-47
2022/09/20 04:07:13;;;;;;;14.40;13.80;;;12.50;38.50;;;;;;4975559;28;20419;-42
2022/09/20 04:10:16;;;;;;;15.30;14.33;;;12.60;37.70;;;;;;5013621;28;20443;-44
2022/09/20 04:13:00;;;;;;;13.90;13.40;;;12.60;37.10;;;;;;5047427;28;20778;-53
2022/09/20 04:15:52;;;;;;;14.77;14.10;;;12.60;36.90;;;;;;5015025;28;20482;-51
2022/09/20 04:18:34;;;;;;;14.23;13.53;;;12.50;37.90;;;;;;5014694;28;20407;-43
2022/09/20 04:21:11;;;;;;;12.97;12.47;;;12.60;37.00;;;;;;5013864;28;20414;-45
2022/09/20 04:24:03;;;;;;;14.70;14.10;;;12.60;37.20;;;;;;5031722;28;20964;-43
2022/09/20 04:26:33;;;;;;;13.70;13.07;;;12.70;36.40;;;;;;5013400;28;20999;-43
2022/09/20 04:29:29;;;;;;;13.10;12.60;;;12.60;36.80;;;;;;5014087;28;20426;-42
2022/09/20 04:32:20;;;;;;;13.47;12.97;;;12.60;36.90;;;;;;5013683;28;20461;-42
2022/09/20 04:37:38;;;;;;;14.00;12.97;;;12.60;38.60;;;;;;5032218;28;20407;-46
2022/09/20 04:40:10;;;;;;;12.90;12.20;;;12.70;38.10;;;;;;5013995;28;20908;-46
2022/09/20 04:43:16;;;;;;;13.13;12.43;;;12.60;39.60;;;;;;5014664;28;20904;-45
2022/09/20 04:46:19;;;;;;;13.77;13.03;;;12.60;39.80;;;;;;5014952;28;20415;-48
2022/09/20 04:48:48;;;;;;;13.33;12.40;;;12.80;39.60;;;;;;5046000;28;20907;-48
2022/09/20 04:52:04;;;;;;;13.80;13.20;;;12.70;40.70;;;;;;5013397;28;20938;-52
2022/09/20 04:55:07;;;;;;;12.90;12.10;;;12.50;42.20;;;;;;4935082;29;20547;-53
2022/09/20 04:57:53;;;;;;;13.90;13.27;;;12.30;42.90;;;;;;5014042;28;20500;-46
2022/09/20 05:00:20;;;;;;;14.70;13.80;;;12.30;43.60;;;;;;5013636;28;20454;-48
2022/09/20 05:03:05;;;;;;;13.43;12.73;;;12.40;42.90;;;;;;5013831;28;20418;-50
2022/09/20 05:05:48;;;;;;;13.73;13.13;;;12.50;42.50;;;;;;5046385;28;20419;-49
2022/09/20 05:08:42;;;;;;;15.47;14.43;;;12.70;42.10;;;;;;5031305;28;20481;-51
2022/09/20 05:11:33;;;;;;;13.03;12.50;;;12.80;41.20;;;;;;5013547;28;20434;-47
2022/09/20 05:14:18;;;;;;;15.37;14.43;;;12.70;42.60;;;;;;5046386;28;20793;-47
2022/09/20 05:17:25;;;;;;;15.00;14.20;;;12.70;41.40;;;;;;5013173;28;20463;-48
2022/09/20 05:20:22;;;;;;;13.77;13.27;;;12.80;41.60;;;;;;5013477;28;20923;-47
2022/09/20 05:23:10;;;;;;;14.53;13.83;;;12.70;42.50;;;;;;5013292;28;20430;-48
2022/09/20 05:26:09;;;;;;;14.33;13.40;;;12.80;41.40;;;;;;5013449;28;20868;-47
2022/09/20 05:28:40;;;;;;;17.97;13.83;;;12.90;40.50;;;;;;5019464;28;20486;-44
2022/09/20 05:31:13;;;;;;;14.97;14.37;;;13.00;39.90;;;;;;5012509;28;20411;-44
2022/09/20 05:34:24;;;;;;;13.87;13.37;;;13.00;38.70;;;;;;5012225;28;20431;-46
2022/09/20 05:37:03;;;;;;;15.27;14.17;;;13.00;39.10;;;;;;4933774;29;21172;-45
2022/09/20 05:39:47;;;;;;;14.17;13.47;;;13.00;39.40;;;;;;4934047;29;20562;-44
2022/09/20 05:42:13;;;;;;;13.93;13.33;;;13.00;39.30;;;;;;4987428;28;20775;-46
2022/09/20 05:45:40;;;;;;;15.17;14.03;;;13.10;39.30;;;;;;5012384;28;20419;-50
2022/09/20 05:48:13;;;;;;;14.50;13.30;;;13.10;39.30;;;;;;4928935;29;20423;-43
2022/09/20 05:50:57;;;;;;;14.67;14.07;;;13.10;39.00;;;;;;4999386;28;20773;-45
2022/09/20 05:53:41;;;;;;;14.80;14.00;;;13.10;38.40;;;;;;5012079;28;20569;-45
2022/09/20 05:56:15;;;;;;;14.87;14.17;;;13.10;38.50;;;;;;5012258;28;20467;-48
2022/09/20 05:59:04;;;;;;;14.70;14.10;;;13.10;38.50;;;;;;5012064;28;20787;-42
2022/09/20 06:01:30;;;;;;;13.60;13.10;;;13.10;38.50;;;;;;5012635;28;20431;-47
2022/09/20 06:03:58;;;;;;;15.23;14.23;;;13.20;38.20;;;;;;5012392;28;20553;-48
2022/09/20 06:06:39;;;;;;;14.83;13.93;;;13.10;39.10;;;;;;5030415;28;20181;-49
2022/09/20 06:09:23;;;;;;;14.50;13.77;;;13.10;38.70;;;;;;5012744;28;20435;-48
2022/09/20 06:12:07;;;;;;;14.27;13.57;;;13.10;38.00;;;;;;5030548;28;20432;-43
2022/09/20 06:14:45;;;;;;;14.10;13.60;;;13.10;38.00;;;;;;5044656;28;20454;-49
2022/09/20 06:17:20;;;;;;;15.33;14.17;;;13.10;37.60;;;;;;5012110;28;20447;-46
2022/09/20 06:20:05;;;;;;;15.03;14.23;;;13.00;39.10;;;;;;5011986;28;20891;-51
2022/09/20 06:22:43;;;;;;;14.60;13.70;;;12.80;40.50;;;;;;5011620;28;20427;-47
2022/09/20 06:25:09;;;;;;;15.93;14.90;;;12.60;42.40;;;;;;5011867;28;20538;-48
2022/09/20 06:27:49;;;;;;;13.33;12.73;;;12.50;42.00;;;;;;5012039;28;20510;-52
2022/09/20 06:30:34;;;;;;;13.13;12.63;;;12.40;42.70;;;;;;5011954;28;20180;-51
2022/09/20 06:33:05;;;;;;;13.73;12.83;;;12.60;43.00;;;;;;5012240;28;20830;-47
2022/09/20 06:35:38;;;;;;;13.33;12.83;;;12.70;41.70;;;;;;5011673;28;20459;-50
2022/09/20 06:41:27;;;;;;;13.33;12.73;;;12.90;40.20;;;;;;5029600;28;20957;-48
2022/09/20 06:43:59;;;;;;;12.57;12.10;;;13.00;39.60;;;;;;5012060;28;20875;-51
2022/09/20 06:46:30;;;;;;;13.70;13.00;;;13.10;39.20;;;;;;5012075;28;20431;-46
2022/09/20 06:48:56;;;;;;;12.83;12.23;;;13.20;38.80;;;;;;5011543;28;20415;-51
2022/09/20 06:51:24;;;;;;;13.33;12.90;;;13.20;38.60;;;;;;5012046;28;20423;-47
2022/09/20 06:53:51;;;;;;;13.07;12.47;;;13.20;37.80;;;;;;5011721;28;20903;-45
2022/09/20 06:56:24;;;;;;;12.73;12.33;;;13.20;37.50;;;;;;5011355;28;20963;-44
2022/09/20 06:58:51;;;;;;;12.87;12.37;;;13.20;37.90;;;;;;5011128;28;21107;-44
2022/09/20 07:01:17;;;;;;;13.57;12.37;;;13.20;38.40;;;;;;5011550;28;20831;-43
2022/09/20 07:03:43;;;;;;;12.40;12.00;;;13.20;37.80;;;;;;5011233;28;20958;-44
2022/09/20 07:06:09;;;;;;;13.20;12.50;;;13.20;37.70;;;;;;4995203;28;20423;-45
2022/09/20 07:08:35;;;;;;;13.80;13.20;;;13.00;39.10;;;;;;5028552;28;20176;-44
2022/09/20 07:11:10;;;;;;;14.63;13.70;;;13.00;38.90;;;;;;5011208;28;20193;-45
2022/09/20 07:13:36;;;;;;;13.40;12.30;;;13.10;37.90;;;;;;5011680;28;20451;-45
2022/09/20 07:16:04;;;;;;;13.47;12.87;;;13.10;37.90;;;;;;5010974;28;20530;-46
2022/09/20 07:18:30;;;;;;;14.07;13.50;;;13.10;37.90;;;;;;5028773;28;20512;-42
2022/09/20 07:20:57;;;;;;;12.97;12.43;;;13.00;39.70;;;;;;5011651;28;20767;-42
2022/09/20 07:23:25;;;;;;;12.40;11.70;;;13.10;39.00;;;;;;5011583;28;20506;-48
2022/09/20 07:25:51;;;;;;;14.27;13.40;;;13.10;38.40;;;;;;5011912;28;20439;-46
2022/09/20 07:28:19;;;;;;;14.17;13.47;;;13.10;38.40;;;;;;5011439;28;20422;-50
2022/09/20 07:30:46;;;;;;;17.90;16.13;;;13.10;38.60;;;;;;5011599;28;20495;-47
2022/09/20 07:33:18;;;;;;;14.47;13.67;;;13.20;39.00;;;;;;5011001;28;20426;-50
2022/09/20 07:35:45;;;;;;;13.53;12.83;;;13.20;38.80;;;;;;5011249;28;20459;-53
2022/09/20 07:38:11;;;;;;;13.33;12.63;;;13.30;37.50;;;;;;5011124;28;20434;-51
2022/09/20 07:40:36;;;;;;;12.60;12.07;;;13.40;36.90;;;;;;5012489;28;20426;-47
2022/09/20 07:43:02;;;;;;;13.50;12.70;;;13.40;36.50;;;;;;5011658;28;20787;-50
2022/09/20 07:45:29;;;;;;;14.30;13.37;;;13.50;36.90;;;;;;5011134;28;20187;-51
2022/09/20 07:47:57;;;;;;;13.97;13.47;;;13.40;37.80;;;;;;5011341;28;20451;-49
2022/09/20 07:50:23;;;;;;;14.70;13.87;;;13.40;37.80;;;;;;5011299;28;20473;-49
2022/09/20 07:52:49;;;;;;;13.03;12.50;;;13.40;36.80;;;;;;5029434;28;20510;-47
2022/09/20 07:55:14;;;;;;;13.10;12.60;;;13.50;36.90;;;;;;5011404;28;20228;-46
2022/09/20 07:57:41;;;;;;;13.57;12.70;;;13.60;36.40;;;;;;5011338;28;20230;-48
2022/09/20 08:00:08;;;;;;;13.30;12.70;;;13.60;35.90;;;;;;5011203;28;20542;-46
2022/09/20 08:02:34;;;;;;;14.30;13.50;;;13.60;35.10;;;;;;5011303;28;20415;-48
2022/09/20 08:05:00;;;;;;;13.90;13.10;;;13.60;34.60;;;;;;5010467;28;20419;-49
2022/09/20 08:07:26;;;;;;;13.43;12.63;;;13.60;34.50;;;;;;5011406;28;20847;-47
2022/09/20 08:09:52;;;;;;;14.37;13.37;;;13.60;34.60;;;;;;5011117;28;20598;-47
2022/09/20 08:12:18;;;;;;;14.57;13.40;;;13.60;34.20;;;;;;5011207;28;20291;-49
2022/09/20 08:14:44;;;;;;;13.90;13.10;;;13.60;32.90;;;;;;5010590;28;20415;-45
2022/09/20 08:17:10;;;;;;;14.17;13.43;;;13.60;32.70;;;;;;5010430;28;20469;-45
2022/09/20 08:19:38;;;;;;;13.03;12.17;;;13.70;32.60;;;;;;5010608;28;20439;-43
2022/09/20 08:22:05;;;;;;;12.70;12.20;;;13.60;32.80;;;;;;5013485;28;20411;-44
2022/09/20 08:24:31;;;;;;;13.43;12.93;;;13.60;31.80;;;;;;5014264;28;20412;-48
2022/09/20 08:26:58;;;;;;;13.17;12.50;;;13.60;31.70;;;;;;5014727;28;20418;-49
2022/09/20 08:29:24;;;;;;;12.50;11.70;;;13.70;32.00;;;;;;5014174;28;20817;-44
2022/09/20 08:31:51;;;;;;;13.60;12.60;;;13.70;31.80;;;;;;5014513;28;20418;-42
2022/09/20 08:34:17;;;;;;;12.60;12.17;;;13.70;31.60;;;;;;5013295;28;20419;-42
2022/09/20 08:36:50;;;;;;;13.47;12.87;;;13.70;31.70;;;;;;5014221;28;20512;-49
2022/09/20 08:39:17;;;;;;;12.93;12.17;;;13.70;32.20;;;;;;5014292;28;20507;-42
2022/09/20 08:41:46;;;;;;;12.10;11.30;;;13.80;32.40;;;;;;5013454;28;20426;-43
2022/09/20 08:44:24;;;;;;;13.40;12.60;;;13.80;31.30;;;;;;5013665;28;20831;-42
2022/09/20 08:46:59;;;;;;;13.40;12.70;;;13.80;30.80;;;;;;5013486;28;20419;-43
2022/09/20 08:49:27;;;;;;;13.43;12.40;;;13.80;31.00;;;;;;5014181;28;20410;-48
2022/09/20 08:51:53;;;;;;;12.97;12.10;;;13.80;31.00;;;;;;5014029;28;20415;-46
2022/09/20 08:54:23;;;;;;;13.73;12.50;;;13.90;30.90;;;;;;5014444;28;20794;-43
2022/09/20 08:56:49;;;;;;;12.47;11.77;;;13.90;29.70;;;;;;5013620;28;20463;-42
2022/09/20 08:59:18;;;;;;;12.87;12.00;;;14.00;29.40;;;;;;5012800;28;20414;-45
2022/09/20 09:01:49;;;;;;;12.63;11.90;;;14.10;29.10;;;;;;5013173;28;20757;-48
2022/09/20 09:04:18;;;;;;;14.27;13.27;;;14.20;27.20;;;;;;5013393;28;20437;-44
2022/09/20 09:06:44;;;;;;;14.20;13.40;;;14.20;27.90;;;;;;5013284;28;20502;-49
2022/09/20 09:09:22;;;;;;;13.40;12.80;;;14.30;28.70;;;;;;5012885;28;20860;-44
2022/09/20 09:11:48;;;;;;;14.20;12.80;;;14.30;28.10;;;;;;5014227;28;20427;-48
2022/09/20 09:14:53;;;;;;;12.87;12.17;;;14.40;27.50;;;;;;5013712;28;20797;-48
2022/09/20 09:17:23;;;;;;;12.90;12.20;;;14.60;27.80;;;;;;5013856;28;20427;-45
2022/09/20 09:19:52;;;;;;;12.60;12.07;;;14.70;27.30;;;;;;5012347;28;20411;-43
2022/09/20 09:22:20;;;;;;;13.30;12.70;;;14.70;27.30;;;;;;5013501;28;20408;-44
2022/09/20 09:25:04;;;;;;;13.23;12.53;;;14.70;27.20;;;;;;5013028;28;20553;-44
2022/09/20 09:27:30;;;;;;;13.30;12.47;;;14.60;27.00;;;;;;5013038;28;20411;-43
2022/09/20 09:29:56;;;;;;;12.30;11.80;;;14.60;27.90;;;;;;5012177;28;20431;-48
2022/09/20 09:32:31;;;;;;;13.47;12.50;;;14.60;27.50;;;;;;5013213;28;20177;-47
2022/09/20 09:35:21;;;;;;;14.13;13.33;;;14.60;27.90;;;;;;5012990;28;20207;-46
2022/09/20 09:37:57;;;;;;;13.13;12.63;;;14.70;28.70;;;;;;5013599;28;20422;-42
2022/09/20 09:40:23;;;;;;;13.23;12.63;;;14.90;28.50;;;;;;5012532;28;20415;-43
2022/09/20 09:42:55;;;;;;;12.87;12.30;;;14.80;27.70;;;;;;5013251;28;20419;-46
2022/09/20 09:45:30;;;;;;;12.77;12.10;;;14.70;28.10;;;;;;5013483;28;20740;-48
2022/09/20 09:47:58;;;;;;;12.10;11.70;;;14.70;28.10;;;;;;5012551;28;20425;-47
2022/09/20 09:50:32;;;;;;;12.10;11.70;;;14.70;26.70;;;;;;5030511;28;20848;-50
2022/09/20 09:53:21;;;;;;;11.77;11.37;;;14.70;26.60;;;;;;5012564;28;20418;-47
2022/09/20 09:55:51;;;;;;;12.90;12.10;;;14.70;26.40;;;;;;5012620;28;20512;-50
2022/09/20 09:58:54;;;;;;;11.90;11.23;;;14.70;26.00;;;;;;5012274;28;20862;-48
2022/09/20 10:01:30;;;;;;;12.90;12.20;;;14.70;26.40;;;;;;5012765;28;20419;-49
2022/09/20 10:04:33;;;;;;;12.97;12.37;;;14.70;26.40;;;;;;5012821;28;20414;-50
2022/09/20 10:07:04;;;;;;;13.10;12.50;;;14.70;26.40;;;;;;5000454;28;20505;-50
2022/09/20 10:09:34;;;;;;;13.50;12.90;;;14.70;26.70;;;;;;5012452;28;20907;-48
2022/09/20 10:12:25;;;;;;;13.30;12.27;;;14.70;26.40;;;;;;5012786;28;20506;-46
2022/09/20 10:14:56;;;;;;;13.20;12.70;;;14.80;25.50;;;;;;5012913;28;20893;-49
2022/09/20 10:17:46;;;;;;;13.37;12.60;;;14.90;25.90;;;;;;5012826;28;20511;-47
2022/09/20 10:20:27;;;;;;;13.97;12.80;;;14.70;24.90;;;;;;5012661;28;20561;-47
2022/09/20 10:23:19;;;;;;;13.53;12.93;;;14.80;25.70;;;;;;5012728;28;20427;-48
2022/09/20 10:26:06;;;;;;;12.70;12.20;;;14.80;25.50;;;;;;5012915;28;20465;-50
2022/09/20 10:28:47;;;;;;;13.20;12.37;;;14.70;25.90;;;;;;5012672;28;20419;-50
2022/09/20 10:31:30;;;;;;;13.23;12.53;;;14.70;26.40;;;;;;5012842;28;20865;-46
2022/09/20 10:34:08;;;;;;;12.30;11.90;;;14.70;26.00;;;;;;5012601;28;20967;-48
2022/09/20 10:36:49;;;;;;;12.90;12.30;;;14.80;26.30;;;;;;5012186;28;20474;-47
2022/09/20 10:39:33;;;;;;;12.30;11.90;;;14.90;25.80;;;;;;5012709;28;20958;-41
2022/09/20 10:45:47;;;;;;;11.37;10.97;;;15.00;24.90;;;;;;5029268;28;20411;-47
2022/09/20 10:48:32;;;;;;;12.83;12.33;;;15.00;24.00;;;;;;5044962;28;20407;-43
2022/09/20 10:51:39;;;;;;;12.90;12.20;;;15.00;23.20;;;;;;5012391;28;20991;-43
2022/09/20 10:54:05;;;;;;;11.27;10.87;;;14.90;22.40;;;;;;4949789;28;20462;-42
2022/09/20 10:56:39;;;;;;;10.90;10.43;;;14.80;21.60;;;;;;5012110;28;20935;-46
2022/09/20 10:59:17;;;;;;;11.47;11.07;;;14.80;22.80;;;;;;5012663;28;20229;-48
2022/09/20 11:01:46;;;;;;;11.63;11.23;;;14.80;22.60;;;;;;5012460;28;20899;-44
2022/09/20 11:04:17;;;;;;;12.57;12.07;;;14.80;22.70;;;;;;5011683;28;20473;-42
2022/09/20 11:07:09;;;;;;;12.90;12.40;;;14.70;23.60;;;;;;5030465;28;20419;-48
2022/09/20 11:09:39;;;;;;;13.13;12.53;;;14.70;24.10;;;;;;5012165;28;20426;-45
2022/09/20 11:12:24;;;;;;;13.33;12.53;;;14.70;23.90;;;;;;5011824;28;20415;-45
2022/09/20 11:15:03;;;;;;;13.30;12.00;;;14.70;23.80;;;;;;5011900;28;20468;-43
2022/09/20 11:17:36;;;;;;;12.00;11.50;;;14.90;23.80;;;;;;5012139;28;21114;-44
2022/09/20 11:20:22;;;;;;;13.40;12.80;;;14.90;23.00;;;;;;5012130;28;20786;-44
2022/09/20 11:23:11;;;;;;;13.67;12.90;;;15.00;23.40;;;;;;4998834;28;20447;-45
2022/09/20 11:25:51;;;;;;;12.57;12.07;;;15.10;22.40;;;;;;5030023;28;20435;-45
2022/09/20 11:28:43;;;;;;;12.53;12.13;;;15.10;21.80;;;;;;5012495;28;20925;-44
2022/09/20 11:31:25;;;;;;;12.43;12.03;;;15.20;22.00;;;;;;5012297;28;20454;-48
2022/09/20 11:33:57;;;;;;;12.60;12.00;;;15.20;21.70;;;;;;5013566;28;20781;-51
2022/09/20 11:36:41;;;;;;;11.40;11.00;;;15.20;22.10;;;;;;5012794;28;20458;-46
2022/09/20 11:39:13;;;;;;;12.40;11.90;;;15.30;22.50;;;;;;5012715;28;20411;-46
2022/09/20 11:41:40;;;;;;;12.73;11.10;;;15.30;20.70;;;;;;5012566;28;20827;-49
2022/09/20 11:44:12;;;;;;;11.57;11.07;;;15.30;19.90;;;;;;5012797;28;20422;-51
2022/09/20 11:46:53;;;;;;;12.80;11.90;;;15.30;20.80;;;;;;5012733;28;20732;-50
2022/09/20 11:49:34;;;;;;;13.17;12.67;;;15.30;22.30;;;;;;5012424;28;20538;-47
2022/09/20 11:52:32;;;;;;;12.37;11.67;;;15.30;22.10;;;;;;5012235;28;20419;-50
2022/09/20 11:55:10;;;;;;;12.80;12.20;;;15.20;22.70;;;;;;5012219;28;20502;-48
2022/09/20 11:57:37;;;;;;;13.20;12.60;;;15.20;21.70;;;;;;5015666;28;20484;-51
2022/09/20 12:00:06;;;;;;;12.23;11.83;;;15.30;21.10;;;;;;5016325;28;20873;-49
2022/09/20 12:02:50;;;;;;;11.87;11.47;;;15.20;21.20;;;;;;5034462;28;20399;-49
2022/09/20 12:05:34;;;;;;;11.90;11.50;;;15.20;20.90;;;;;;5016058;28;20431;-47
2022/09/20 12:08:02;;;;;;;13.13;12.00;;;15.20;20.90;;;;;;5033932;28;20422;-52
2022/09/20 12:10:36;;;;;;;11.37;10.97;;;15.20;20.50;;;;;;5015776;28;20415;-48
2022/09/20 12:13:24;;;;;;;12.70;11.47;;;15.20;20.00;;;;;;5016268;28;20435;-48
2022/09/20 12:15:57;;;;;;;12.17;11.83;;;15.30;18.50;;;;;;5016077;28;20463;-50
2022/09/20 12:18:34;;;;;;;12.60;11.93;;;15.30;19.20;;;;;;5015583;28;20419;-50
2022/09/20 12:21:15;;;;;;;12.40;11.60;;;15.40;18.30;;;;;;5016164;28;20903;-42
2022/09/20 12:23:45;;;;;;;12.40;11.80;;;15.40;19.10;;;;;;5015492;28;20423;-43
2022/09/20 12:26:20;;;;;;;11.97;11.57;;;15.40;20.00;;;;;;5015724;28;20522;-43
2022/09/20 12:28:50;;;;;;;12.00;11.50;;;15.40;17.40;;;;;;5015324;28;20419;-42
2022/09/20 12:31:24;;;;;;;11.57;11.07;;;15.30;18.50;;;;;;5015532;28;20466;-45
2022/09/20 12:33:58;;;;;;;12.37;11.57;;;15.30;17.70;;;;;;5015574;28;20419;-43
2022/09/20 12:36:33;;;;;;;10.57;10.17;;;15.40;18.60;;;;;;5015772;28;20459;-43
2022/09/20 12:39:05;;;;;;;11.00;10.50;;;15.50;17.70;;;;;;5015869;28;20419;-49
2022/09/20 12:42:01;;;;;;;10.10;9.80;;;15.50;18.40;;;;;;5015772;28;20415;-47
2022/09/20 12:44:59;;;;;;;12.00;11.50;;;15.50;18.60;;;;;;5049289;28;20419;-48
2022/09/20 12:47:36;;;;;;;12.03;11.47;;;15.50;19.20;;;;;;5015254;28;20526;-48
2022/09/20 12:53:13;;;;;;;11.73;11.33;;;15.50;19.30;;;;;;5020980;28;20489;-49
2022/09/20 12:56:01;;;;;;;11.50;10.80;;;15.60;20.50;;;;;;5014852;28;20463;-46
2022/09/20 12:58:50;;;;;;;11.90;11.50;;;15.60;18.70;;;;;;5015548;28;20446;-45
2022/09/20 13:01:15;;;;;;;11.67;11.27;;;15.60;19.40;;;;;;5033105;28;20419;-41
2022/09/20 13:03:47;;;;;;;10.47;10.17;;;15.60;18.00;;;;;;5015328;28;20427;-44
2022/09/20 13:06:18;;;;;;;10.73;10.23;;;15.60;17.80;;;;;;5015917;28;20647;-48
2022/09/20 13:09:07;;;;;;;10.67;10.13;;;15.60;16.60;;;;;;5014303;28;20411;-42
2022/09/20 13:11:53;;;;;;;12.10;11.00;;;15.60;16.80;;;;;;5015036;28;20428;-47
2022/09/20 13:14:39;;;;;;;11.10;10.50;;;15.60;15.70;;;;;;5015362;28;20737;-49
2022/09/20 13:17:18;;;;;;;10.60;10.00;;;15.60;17.20;;;;;;5015511;28;20517;-47
2022/09/20 13:19:45;;;;;;;10.60;10.20;;;15.60;16.60;;;;;;5014982;28;20415;-43
2022/09/20 13:22:21;;;;;;;11.10;10.60;;;15.70;17.20;;;;;;5015063;28;20510;-45
2022/09/20 13:24:49;;;;;;;11.20;10.80;;;15.90;17.50;;;;;;5014805;28;20637;-44
2022/09/20 13:27:31;;;;;;;11.80;11.40;;;15.90;17.90;;;;;;5032283;28;20415;-50
2022/09/20 13:30:20;;;;;;;11.30;10.80;;;15.90;17.30;;;;;;5014822;28;20424;-44
2022/09/20 13:32:47;;;;;;;11.50;10.87;;;15.90;18.30;;;;;;5014869;28;20424;-48
2022/09/20 13:35:26;;;;;;;11.20;10.80;;;15.90;18.30;;;;;;5014571;28;20566;-51
2022/09/20 13:38:01;;;;;;;11.20;10.70;;;15.80;18.90;;;;;;5014938;28;20423;-52